Time;durP1;ratioP1;P1;durP2;ratioP2;P2;SDS_P1;SDS_P2;PMS_P1;PMS_P2;Temp;Humidity;BMP_temperature;BMP_pressure;BME280_temperature;BME280_humidity;BME280_pressure;Samples;Min_cycle;Max_cycle;Signal;HPM_P1;HPM_P2
2024/04/06 00:02:24;;;;;;;;;;;;;;;24.09;41.74;94315.53;5072519;28;7192;-65
2024/04/06 00:04:55;;;;;;;;;;;;;;;24.08;42.15;94317.53;5067977;28;7054;-65
2024/04/06 00:07:34;;;;;;;;;;;;;;;24.01;42.25;94312.53;5088450;28;7045;-65
2024/04/06 00:10:33;;;;;;;;;;;;;;;24.05;42.23;94312.28;5099998;28;7005;-65
2024/04/06 00:13:13;;;;;;;;;;;;;;;24.01;42.05;94306.28;5023311;28;7016;-65
2024/04/06 00:15:49;;;;;;;;;;;;;;;24.02;41.94;94311.25;5016692;28;7233;-65
2024/04/06 00:18:19;;;;;;;;;;;;;;;24.02;41.99;94313.25;5044994;28;7000;-65
2024/04/06 00:21:04;;;;;;;;;;;;;;;24.04;42.30;94319.00;5009270;28;7279;-65
2024/04/06 00:23:31;;;;;;;;;;;;;;;24.01;42.69;94318.03;5023830;28;7063;-64
2024/04/06 00:26:15;;;;;;;;;;;;;;;23.97;42.67;94314.75;5032212;28;7317;-64
2024/04/06 00:29:37;;;;;;;;;;;;;;;24.03;41.87;94331.25;5048147;28;7268;-64
2024/04/06 00:32:35;;;;;;;;;;;;;;;24.00;42.64;94330.25;4999689;28;7198;-60
2024/04/06 00:35:11;;;;;;;;;;;;;;;24.02;42.78;94336.00;4988086;28;7107;-60
2024/04/06 00:37:39;;;;;;;;;;;;;;;23.94;42.58;94327.53;4991884;28;7064;-60
2024/04/06 00:40:08;;;;;;;;;;;;;;;24.01;42.64;94334.50;4992118;28;7032;-60
2024/04/06 00:42:45;;;;;;;;;;;;;;;23.99;42.36;94343.22;5005269;28;7424;-60
2024/04/06 00:45:21;;;;;;;;;;;;;;;23.95;42.07;94336.50;4991547;28;7024;-60
2024/04/06 00:48:03;;;;;;;;;;;;;;;23.91;42.46;94331.25;4989190;28;9206;-60
2024/04/06 00:50:41;;;;;;;;;;;;;;;23.95;42.16;94336.50;4989042;28;7639;-60
2024/04/06 00:53:16;;;;;;;;;;;;;;;23.96;42.90;94349.00;4999566;28;7198;-60
2024/04/06 00:55:52;;;;;;;;;;;;;;;23.90;42.55;94340.00;4991372;28;7071;-60
2024/04/06 00:58:20;;;;;;;;;;;;;;;23.92;42.50;94337.50;4990740;28;9089;-60
2024/04/06 01:00:46;;;;;;;;;;;;;;;23.90;42.37;94351.00;4992100;28;7010;-60
2024/04/06 01:03:12;;;;;;;;;;;;;;;23.94;42.30;94363.22;4999428;28;7029;-60
2024/04/06 01:05:42;;;;;;;;;;;;;;;23.95;42.32;94366.72;5020796;28;7037;-61
2024/04/06 01:08:18;;;;;;;;;;;;;;;23.87;42.69;94350.00;5067916;28;7249;-60
2024/04/06 01:11:15;;;;;;;;;;;;;;;23.94;42.47;94356.97;5070824;28;7008;-60
2024/04/06 01:13:57;;;;;;;;;;;;;;;23.87;42.71;94352.00;4999999;28;7029;-60
2024/04/06 01:16:23;;;;;;;;;;;;;;;23.85;42.46;94358.00;4979673;28;7033;-60
2024/04/06 01:18:49;;;;;;;;;;;;;;;23.92;42.33;94364.97;4974691;28;7124;-60
2024/04/06 01:21:33;;;;;;;;;;;;;;;23.86;42.68;94362.22;5001215;28;7118;-60
2024/04/06 01:27:56;;;;;;;;;;;;;;;23.89;42.16;94363.22;4985121;28;7370;-60
2024/04/06 01:30:37;;;;;;;;;;;;;;;23.83;42.61;94354.25;4977927;28;7192;-59
2024/04/06 01:33:22;;;;;;;;;;;;;;;23.88;42.55;94367.22;4992070;28;9007;-60
2024/04/06 01:36:07;;;;;;;;;;;;;;;23.90;42.90;94372.97;4992244;28;7038;-60
2024/04/06 01:38:42;;;;;;;;;;;;;;;23.82;42.70;94363.72;4998136;28;6986;-60
2024/04/06 01:41:11;;;;;;;;;;;;;;;23.86;42.37;94370.47;4995724;28;7219;-60
2024/04/06 01:43:55;;;;;;;;;;;;;;;23.86;42.40;94372.44;4982523;28;7122;-64
2024/04/06 01:46:41;;;;;;;;;;;;;;;23.81;42.71;94364.97;4996353;28;7025;-64
2024/04/06 01:49:11;;;;;;;;;;;;;;;23.85;42.94;94379.22;4983979;28;7049;-64
2024/04/06 01:51:40;;;;;;;;;;;;;;;23.86;42.59;94375.19;5068187;28;7092;-64
2024/04/06 01:54:06;;;;;;;;;;;;;;;23.77;42.24;94365.22;5050099;28;7126;-64
2024/04/06 01:56:46;;;;;;;;;;;;;;;23.84;42.66;94378.44;5093120;28;7092;-64
2024/04/06 01:59:22;;;;;;;;;;;;;;;23.79;42.70;94367.47;5076782;28;7046;-64
2024/04/06 02:01:48;;;;;;;;;;;;;;;23.85;42.91;94371.72;5078603;28;7035;-64
2024/04/06 02:04:14;;;;;;;;;;;;;;;23.81;42.62;94365.72;5076930;28;9044;-64
2024/04/06 02:06:54;;;;;;;;;;;;;;;23.86;42.52;94370.47;5083624;28;7021;-64
2024/04/06 02:09:52;;;;;;;;;;;;;;;23.85;42.40;94374.47;5089628;28;7023;-64
2024/04/06 02:12:22;;;;;;;;;;;;;;;23.84;42.47;94372.97;5071746;28;7384;-64
2024/04/06 02:15:12;;;;;;;;;;;;;;;23.84;42.36;94372.19;5083377;28;7055;-64
2024/04/06 02:18:00;;;;;;;;;;;;;;;23.85;42.58;94373.72;5091015;28;8631;-64
2024/04/06 02:20:31;;;;;;;;;;;;;;;23.80;43.02;94364.22;5078811;28;7377;-64
2024/04/06 02:23:13;;;;;;;;;;;;;;;23.79;42.96;94370.22;5076753;28;7050;-64
2024/04/06 02:25:41;;;;;;;;;;;;;;;23.86;42.67;94380.69;5076056;28;7049;-64
2024/04/06 02:28:35;;;;;;;;;;;;;;;23.84;42.58;94369.47;5076249;28;7046;-64
2024/04/06 02:31:14;;;;;;;;;;;;;;;23.78;42.70;94360.47;5058602;28;7038;-64
2024/04/06 02:33:47;;;;;;;;;;;;;;;23.83;42.57;94371.47;5044952;28;7043;-64
2024/04/06 02:36:35;;;;;;;;;;;;;;;23.79;42.71;94364.72;5083464;28;9043;-64
2024/04/06 02:39:09;;;;;;;;;;;;;;;23.83;42.28;94367.97;5097997;28;7026;-65
2024/04/06 02:41:37;;;;;;;;;;;;;;;23.80;42.31;94361.47;5089408;28;7332;-64
2024/04/06 02:44:05;;;;;;;;;;;;;;;23.82;42.63;94371.94;5076517;28;7114;-64
2024/04/06 02:46:31;;;;;;;;;;;;;;;23.76;42.57;94360.22;5067790;28;7277;-64
2024/04/06 02:49:03;;;;;;;;;;;;;;;23.76;42.97;94357.47;5067246;28;7603;-65
2024/04/06 02:51:32;;;;;;;;;;;;;;;23.81;42.92;94367.72;5079773;28;6989;-64
2024/04/06 02:53:58;;;;;;;;;;;;;;;23.75;42.71;94358.75;5074765;28;7096;-64
2024/04/06 02:56:25;;;;;;;;;;;;;;;23.81;42.41;94365.72;5063128;28;7239;-64
2024/04/06 02:59:12;;;;;;;;;;;;;;;23.79;42.81;94365.47;5082370;28;6986;-63
2024/04/06 03:01:40;;;;;;;;;;;;;;;23.80;42.77;94357.97;5081276;28;7335;-64
2024/04/06 03:04:06;;;;;;;;;;;;;;;23.75;42.55;94345.00;5074953;28;7178;-63
2024/04/06 03:06:32;;;;;;;;;;;;;;;23.74;42.44;94346.25;5073090;28;7064;-63
2024/04/06 03:08:58;;;;;;;;;;;;;;;23.78;42.47;94355.75;5068264;28;7068;-63
2024/04/06 03:11:26;;;;;;;;;;;;;;;23.79;42.68;94351.72;5084875;28;7064;-63
2024/04/06 03:13:59;;;;;;;;;;;;;;;23.76;42.81;94352.00;5084965;28;9278;-63
2024/04/06 03:16:34;;;;;;;;;;;;;;;23.79;42.47;94356.50;5088147;28;7029;-64
2024/04/06 03:19:04;;;;;;;;;;;;;;;23.74;42.68;94346.25;5060528;28;7039;-64
2024/04/06 03:21:33;;;;;;;;;;;;;;;23.78;42.68;94346.75;5084589;28;7329;-64
2024/04/06 03:24:01;;;;;;;;;;;;;;;23.77;42.65;94343.25;5070622;28;7052;-63
2024/04/06 03:26:29;;;;;;;;;;;;;;;23.71;42.99;94339.75;5076599;28;7311;-63
2024/04/06 03:28:57;;;;;;;;;;;;;;;23.78;42.85;94349.50;5075485;28;7250;-63
2024/04/06 03:31:31;;;;;;;;;;;;;;;23.73;42.50;94350.22;5096213;28;7031;-63
2024/04/06 03:34:01;;;;;;;;;;;;;;;23.68;42.58;94337.25;5068847;28;7362;-64
2024/04/06 03:36:30;;;;;;;;;;;;;;;23.77;42.60;94343.25;5082924;28;7275;-63
2024/04/06 03:39:00;;;;;;;;;;;;;;;23.78;42.57;94344.00;5088798;28;7111;-63
2024/04/06 03:41:35;;;;;;;;;;;;;;;23.78;43.08;94344.75;5074360;28;7698;-63
2024/04/06 03:44:02;;;;;;;;;;;;;;;23.76;43.04;94352.00;5072558;28;7241;-64
2024/04/06 03:46:57;;;;;;;;;;;;;;;23.77;42.61;94361.75;5071876;28;9060;-64
2024/04/06 03:49:23;;;;;;;;;;;;;;;23.74;42.65;94346.25;5013609;28;6975;-64
2024/04/06 03:51:49;;;;;;;;;;;;;;;23.71;43.13;94341.75;5020400;28;7035;-63
2024/04/06 03:54:19;;;;;;;;;;;;;;;23.70;42.66;94343.75;5010875;28;9377;-64
2024/04/06 03:56:48;;;;;;;;;;;;;;;23.76;42.49;94346.50;5019716;28;7073;-63
2024/04/06 03:59:14;;;;;;;;;;;;;;;23.75;42.67;94347.75;5027080;28;6976;-63
2024/04/06 04:01:40;;;;;;;;;;;;;;;23.73;42.71;94345.50;5016042;28;7061;-64
2024/04/06 04:04:09;;;;;;;;;;;;;;;23.75;42.53;94353.25;5005418;28;7355;-63
2024/04/06 04:06:39;;;;;;;;;;;;;;;23.73;42.77;94348.25;5010292;28;7099;-64
2024/04/06 04:09:14;;;;;;;;;;;;;;;23.72;42.93;94340.50;4997986;28;7478;-63
2024/04/06 04:11:45;;;;;;;;;;;;;;;23.73;43.16;94336.50;5013900;28;7697;-63
2024/04/06 04:14:12;;;;;;;;;;;;;;;23.74;42.66;94344.25;5024535;28;7180;-63
2024/04/06 04:17:11;;;;;;;;;;;;;;;23.73;42.49;94353.72;4997575;28;7020;-63
2024/04/06 04:19:54;;;;;;;;;;;;;;;23.73;42.57;94358.47;4953895;28;7126;-63
2024/04/06 04:22:33;;;;;;;;;;;;;;;23.64;42.70;94339.53;4952760;28;7041;-63
2024/04/06 04:25:01;;;;;;;;;;;;;;;23.72;42.33;94367.97;4962787;28;7319;-63
2024/04/06 04:27:46;;;;;;;;;;;;;;;23.63;42.66;94368.97;4991663;28;7364;-63
2024/04/06 04:30:42;;;;;;;;;;;;;;;23.69;42.78;94386.19;4991857;28;7067;-63
2024/04/06 04:33:38;;;;;;;;;;;;;;;23.74;43.35;94381.94;4992375;28;7301;-63
2024/04/06 04:36:14;;;;;;;;;;;;;;;23.75;43.25;94380.72;4987851;28;7032;-63
2024/04/06 04:38:52;;;;;;;;;;;;;;;23.73;43.14;94372.94;5004110;28;7325;-63
2024/04/06 04:41:28;;;;;;;;;;;;;;;23.79;43.08;94383.97;5002752;28;7197;-63
2024/04/06 04:44:18;;;;;;;;;;;;;;;23.80;43.08;94397.19;4998250;28;7234;-63
2024/04/06 04:46:46;;;;;;;;;;;;;;;23.74;42.82;94377.22;5002409;28;7036;-63
2024/04/06 04:49:17;;;;;;;;;;;;;;;23.76;42.99;94384.94;4990469;28;7031;-63
2024/04/06 04:52:22;;;;;;;;;;;;;;;23.83;42.71;94400.94;4995654;28;7050;-63
2024/04/06 04:54:51;;;;;;;;;;;;;;;23.82;42.92;94405.66;5020669;28;7218;-63
2024/04/06 04:57:40;;;;;;;;;;;;;;;23.83;42.69;94407.19;5033197;28;7124;-63
2024/04/06 05:00:15;;;;;;;;;;;;;;;23.79;43.00;94400.44;5030997;28;7081;-63
2024/04/06 05:02:41;;;;;;;;;;;;;;;23.78;42.82;94396.19;5029719;28;7077;-64
2024/04/06 05:05:07;;;;;;;;;;;;;;;23.81;42.79;94398.69;5044939;28;7110;-63
2024/04/06 05:07:45;;;;;;;;;;;;;;;23.79;42.90;94400.44;5050685;28;7137;-63
2024/04/06 05:10:11;;;;;;;;;;;;;;;23.82;43.37;94418.66;5039284;28;7044;-64
2024/04/06 05:12:41;;;;;;;;;;;;;;;23.83;42.92;94420.16;5069237;28;7110;-64
2024/04/06 05:15:17;;;;;;;;;;;;;;;23.77;43.11;94408.44;5075922;28;7396;-63
2024/04/06 05:17:56;;;;;;;;;;;;;;;23.78;42.72;94413.41;5062239;28;7038;-63
2024/04/06 05:20:32;;;;;;;;;;;;;;;23.83;43.17;94420.16;5056005;28;7212;-63
2024/04/06 05:23:09;;;;;;;;;;;;;;;23.78;42.90;94401.66;5057867;28;7072;-63
2024/04/06 05:25:35;;;;;;;;;;;;;;;23.80;43.46;94415.66;5072409;28;7025;-64
2024/04/06 05:28:14;;;;;;;;;;;;;;;23.75;43.48;94408.91;5055694;28;9035;-63
2024/04/06 05:30:46;;;;;;;;;;;;;;;23.76;43.13;94402.19;5075331;28;7103;-63
2024/04/06 05:33:23;;;;;;;;;;;;;;;23.79;43.30;94406.66;5080724;28;7240;-64
2024/04/06 05:35:51;;;;;;;;;;;;;;;23.77;43.29;94417.38;5072664;28;7107;-63
2024/04/06 05:38:27;;;;;;;;;;;;;;;23.72;43.35;94409.16;5088354;28;7169;-63
2024/04/06 05:40:56;;;;;;;;;;;;;;;23.76;43.14;94415.91;5079502;28;7031;-64
2024/04/06 05:43:29;;;;;;;;;;;;;;;23.80;43.30;94421.13;5075090;28;7277;-63
2024/04/06 05:46:04;;;;;;;;;;;;;;;23.72;43.52;94411.91;5093071;28;7113;-64
2024/04/06 05:48:42;;;;;;;;;;;;;;;23.76;43.34;94409.66;5054109;28;7206;-65
2024/04/06 05:51:11;;;;;;;;;;;;;;;23.82;42.99;94421.38;5072680;28;7250;-65
2024/04/06 05:54:15;;;;;;;;;;;;;;;23.82;43.54;94421.38;5061175;28;9323;-64
2024/04/06 05:57:03;;;;;;;;;;;;;;;23.76;43.35;94407.66;5080090;28;9757;-64
2024/04/06 05:59:34;;;;;;;;;;;;;;;23.83;43.20;94422.91;5072909;28;7287;-66
2024/04/06 06:02:03;;;;;;;;;;;;;;;23.81;43.50;94426.16;5087861;28;7112;-65
2024/04/06 06:04:31;;;;;;;;;;;;;;;23.80;43.33;94418.41;5055451;28;8383;-66
2024/04/06 06:07:17;;;;;;;;;;;;;;;23.84;42.88;94427.13;5069928;28;7132;-66
2024/04/06 06:09:49;;;;;;;;;;;;;;;23.80;43.16;94418.41;5053788;28;7139;-66
2024/04/06 06:12:24;;;;;;;;;;;;;;;23.88;43.73;94424.91;5071770;28;7134;-66
2024/04/06 06:15:31;;;;;;;;;;;;;;;23.90;43.35;94431.38;5072259;28;7321;-66
2024/04/06 06:18:08;;;;;;;;;;;;;;;23.90;43.60;94433.41;5065736;28;7083;-67
2024/04/06 06:21:06;;;;;;;;;;;;;;;23.95;43.94;94435.38;5072794;28;7118;-66
2024/04/06 06:24:10;;;;;;;;;;;;;;;23.97;43.76;94432.88;5077128;28;6925;-67
2024/04/06 06:26:45;;;;;;;;;;;;;;;23.93;44.01;94427.66;5072926;28;7392;-67
2024/04/06 06:29:20;;;;;;;;;;;;;;;23.96;42.96;94432.16;5070352;28;7031;-67
2024/04/06 06:31:49;;;;;;;;;;;;;;;23.95;42.04;94427.16;5069922;28;7363;-65
2024/04/06 06:34:29;;;;;;;;;;;;;;;23.83;41.05;94425.66;5083060;28;7044;-63
2024/04/06 06:37:14;;;;;;;;;;;;;;;23.83;41.80;94433.88;5071073;28;7295;-62
2024/04/06 06:39:54;;;;;;;;;;;;;;;23.70;41.95;94437.13;5051546;28;7045;-65
2024/04/06 06:42:21;;;;;;;;;;;;;;;23.75;41.89;94435.63;5077166;28;7254;-65
2024/04/06 06:45:06;;;;;;;;;;;;;;;23.80;42.00;94441.13;5072886;28;7203;-65
2024/04/06 06:47:51;;;;;;;;;;;;;;;23.83;42.93;94437.41;5076386;28;7275;-65
2024/04/06 06:50:19;;;;;;;;;;;;;;;23.85;42.55;94436.88;5093568;28;7068;-65
2024/04/06 06:52:59;;;;;;;;;;;;;;;23.81;42.82;94428.16;5075515;28;7044;-65
2024/04/06 06:55:27;;;;;;;;;;;;;;;23.81;42.65;94428.91;5072807;28;7850;-65
2024/04/06 06:58:04;;;;;;;;;;;;;;;23.86;42.65;94427.38;5070633;28;7231;-65
2024/04/06 07:00:36;;;;;;;;;;;;;;;23.82;42.61;94421.38;5089333;28;7062;-65
2024/04/06 07:03:02;;;;;;;;;;;;;;;23.88;43.14;94431.13;5058254;28;7018;-65
2024/04/06 07:05:28;;;;;;;;;;;;;;;23.92;42.86;94430.91;5073651;28;7035;-65
2024/04/06 07:07:58;;;;;;;;;;;;;;;23.95;42.60;94438.13;5078644;28;7014;-66
2024/04/06 07:10:24;;;;;;;;;;;;;;;23.89;42.74;94429.91;5081932;28;7852;-65
2024/04/06 07:13:04;;;;;;;;;;;;;;;23.95;43.06;94436.16;5040666;28;7644;-65
2024/04/06 07:15:34;;;;;;;;;;;;;;;23.89;43.25;94429.91;5073294;28;8781;-65
2024/04/06 07:18:04;;;;;;;;;;;;;;;23.97;43.43;94438.38;5078835;28;7114;-66
2024/04/06 07:20:31;;;;;;;;;;;;;;;24.00;43.42;94434.66;5078979;28;7051;-65
2024/04/06 07:23:17;;;;;;;;;;;;;;;23.95;42.38;94419.66;5087752;28;7218;-64
2024/04/06 07:25:45;;;;;;;;;;;;;;;24.01;42.80;94436.16;5059136;28;7376;-64
2024/04/06 07:28:28;;;;;;;;;;;;;;;23.90;42.71;94414.91;5079002;28;7054;-64
2024/04/06 07:31:02;;;;;;;;;;;;;;;23.93;43.02;94415.91;5048919;28;7277;-64
2024/04/06 07:33:31;;;;;;;;;;;;;;;23.98;43.14;94431.66;5062553;28;6987;-64
2024/04/06 07:36:05;;;;;;;;;;;;;;;23.99;42.45;94431.16;5058137;28;9044;-63
2024/04/06 07:38:51;;;;;;;;;;;;;;;24.02;43.43;94443.13;5075970;28;7008;-63
2024/04/06 07:41:19;;;;;;;;;;;;;;;24.03;42.35;94427.41;5070543;28;7047;-63
2024/04/06 07:43:50;;;;;;;;;;;;;;;23.93;41.66;94413.91;5089185;28;7030;-63
2024/04/06 07:46:28;;;;;;;;;;;;;;;23.88;41.82;94408.44;5053141;28;7307;-63
2024/04/06 07:48:56;;;;;;;;;;;;;;;23.87;42.15;94418.66;5079713;28;7311;-63
2024/04/06 07:51:21;;;;;;;;;;;;;;;23.79;41.70;94412.16;5079362;28;7002;-63
2024/04/06 07:54:02;;;;;;;;;;;;;;;23.77;41.82;94408.44;5075038;28;7022;-63
2024/04/06 07:56:36;;;;;;;;;;;;;;;23.78;42.24;94418.16;5056856;28;7126;-63
2024/04/06 07:59:06;;;;;;;;;;;;;;;23.72;41.86;94425.63;5070732;28;7028;-63
2024/04/06 08:01:37;;;;;;;;;;;;;;;23.74;41.53;94436.88;5067858;28;9036;-64
2024/04/06 08:04:03;;;;;;;;;;;;;;;23.73;42.71;94430.63;5067121;28;6998;-61
2024/04/06 08:06:29;;;;;;;;;;;;;;;23.73;42.06;94425.13;5065640;28;7018;-63
2024/04/06 08:09:00;;;;;;;;;;;;;;;23.78;42.55;94418.91;5064146;28;7319;-62
2024/04/06 08:11:30;;;;;;;;;;;;;;;23.88;42.29;94416.69;5089137;28;7185;-62
2024/04/06 08:14:51;;;;;;;;;;;;;;;23.90;42.33;94423.16;5077535;28;9283;-62
2024/04/06 08:17:34;;;;;;;;;;;;;;;23.89;42.14;94420.91;5079530;28;8022;-62
2024/04/06 08:20:06;;;;;;;;;;;;;;;23.84;42.27;94425.16;5074008;28;7067;-62
2024/04/06 08:22:33;;;;;;;;;;;;;;;23.80;41.94;94429.38;5069904;28;7239;-62
2024/04/06 08:25:37;;;;;;;;;;;;;;;23.85;41.88;94426.66;5057072;28;7011;-63
2024/04/06 08:28:03;;;;;;;;;;;;;;;23.83;42.32;94431.16;4983319;28;7008;-63
2024/04/06 08:31:06;;;;;;;;;;;;;;;23.89;41.79;94434.63;4974644;28;9226;-62
2024/04/06 08:33:47;;;;;;;;;;;;;;;23.91;42.38;94430.16;4960080;28;7049;-58
2024/04/06 08:36:26;;;;;;;;;;;;;;;23.88;41.67;94422.16;4980925;28;6869;-58
2024/04/06 08:39:28;;;;;;;;;;;;;;;23.86;41.82;94410.91;4964790;28;7294;-58
2024/04/06 08:42:36;;;;;;;;;;;;;;;23.81;42.39;94419.91;4986858;28;7378;-58
2024/04/06 08:45:12;;;;;;;;;;;;;;;23.77;41.99;94414.66;4962629;28;7205;-58
2024/04/06 08:47:52;;;;;;;;;;;;;;;23.78;42.24;94424.41;4942447;28;7672;-58
2024/04/06 08:51:13;;;;;;;;;;;;;;;23.80;41.74;94437.63;4954564;28;7450;-57
2024/04/06 08:54:26;;;;;;;;;;;;;;;23.80;41.90;94437.63;4864979;29;7353;-58
2024/04/06 08:57:29;;;;;;;;;;;;;;;23.82;42.70;94435.13;4873266;29;7923;-59
2024/04/06 09:00:16;;;;;;;;;;;;;;;23.86;42.23;94425.41;4873193;29;7033;-58
2024/04/06 09:02:47;;;;;;;;;;;;;;;23.88;41.95;94431.13;4926225;28;8481;-57
2024/04/06 09:05:13;;;;;;;;;;;;;;;23.84;42.19;94418.91;4949067;28;7558;-61
2024/04/06 09:07:39;;;;;;;;;;;;;;;23.92;41.77;94428.16;4935301;29;7221;-61
2024/04/06 09:10:05;;;;;;;;;;;;;;;23.93;41.27;94424.16;4952226;28;7205;-62
2024/04/06 09:12:42;;;;;;;;;;;;;;;23.94;41.31;94425.66;4949561;28;7134;-60
2024/04/06 09:15:41;;;;;;;;;;;;;;;23.92;41.16;94420.66;4966669;28;7118;-60
2024/04/06 09:18:20;;;;;;;;;;;;;;;23.88;41.51;94409.16;4986980;28;7046;-60
2024/04/06 09:20:53;;;;;;;;;;;;;;;23.97;41.52;94424.66;4963076;28;8952;-60
2024/04/06 09:23:19;;;;;;;;;;;;;;;24.03;41.63;94419.94;4985528;28;7282;-59
2024/04/06 09:25:55;;;;;;;;;;;;;;;24.07;41.52;94416.94;4985953;28;7425;-60
2024/04/06 09:28:22;;;;;;;;;;;;;;;24.05;41.88;94414.72;4994415;28;7289;-59
2024/04/06 09:30:57;;;;;;;;;;;;;;;24.03;41.55;94406.19;5076711;28;7435;-60
2024/04/06 09:33:29;;;;;;;;;;;;;;;24.03;41.57;94411.69;5083039;28;7028;-59
2024/04/06 09:35:55;;;;;;;;;;;;;;;24.05;41.75;94411.19;5066892;28;7375;-59
2024/04/06 09:38:27;;;;;;;;;;;;;;;24.07;41.47;94414.19;5064989;28;6985;-59
2024/04/06 09:41:03;;;;;;;;;;;;;;;24.14;41.22;94416.44;5069993;28;7312;-59
2024/04/06 09:43:38;;;;;;;;;;;;;;;24.17;41.22;94418.19;5040301;28;7116;-62
2024/04/06 09:46:07;;;;;;;;;;;;;;;24.18;41.08;94422.44;5074359;28;6941;-61
2024/04/06 09:48:37;;;;;;;;;;;;;;;24.20;41.30;94428.19;5085301;28;7251;-63
2024/04/06 09:51:07;;;;;;;;;;;;;;;24.16;41.00;94417.44;5077080;28;7028;-62
2024/04/06 09:53:36;;;;;;;;;;;;;;;24.20;41.33;94412.44;5086780;28;8283;-62
2024/04/06 09:56:19;;;;;;;;;;;;;;;24.25;40.40;94425.41;5064910;28;7191;-62
2024/04/06 09:58:59;;;;;;;;;;;;;;;24.19;40.98;94413.69;5056973;28;7244;-63
2024/04/06 10:01:27;;;;;;;;;;;;;;;24.22;40.55;94414.69;5079899;28;8752;-62
2024/04/06 10:03:53;;;;;;;;;;;;;;;24.25;40.98;94414.44;5062625;28;6999;-63
2024/04/06 10:06:21;;;;;;;;;;;;;;;24.23;40.21;94405.94;5083025;28;7052;-64
2024/04/06 10:08:55;;;;;;;;;;;;;;;24.33;40.76;94415.44;5053398;28;7246;-62
2024/04/06 10:11:23;;;;;;;;;;;;;;;24.37;41.52;94426.91;5083981;28;7118;-63
2024/04/06 10:17:28;;;;;;;;;;;;;;;24.69;59.48;94430.84;5086146;28;7315;-63
2024/04/06 10:19:57;;;;;;;;;;;;;;;25.18;63.50;94440.25;5085539;28;7284;-63
2024/04/06 10:22:27;;;;;;;;;;;;;;;25.55;63.16;94426.06;5069594;28;9001;-64
2024/04/06 10:25:08;;;;;;;;;;;;;;;25.96;63.74;94424.06;5081312;28;7630;-63
2024/04/06 10:28:12;;;;;;;;;;;;;;;26.31;62.80;94428.06;5081743;28;6942;-64
2024/04/06 10:31:13;;;;;;;;;;;;;;;26.54;62.66;94424.59;5011054;28;7038;-61
2024/04/06 10:33:53;;;;;;;;;;;;;;;26.66;59.03;94417.69;4991799;28;7342;-62
2024/04/06 10:36:31;;;;;;;;;;;;;;;26.87;58.49;94420.75;5003215;28;7295;-62
2024/04/06 10:39:36;;;;;;;;;;;;;;;26.82;44.11;94418.81;5027096;28;7119;-63
2024/04/06 10:42:41;;;;;;;;;;;;;;;26.75;42.80;94422.88;5012546;28;7188;-62
2024/04/06 10:45:10;;;;;;;;;;;;;;;26.70;42.18;94422.94;4954512;28;7406;-62
2024/04/06 10:47:38;;;;;;;;;;;;;;;26.74;40.53;94426.16;4953213;28;9784;-62
2024/04/06 10:50:11;;;;;;;;;;;;;;;26.46;39.94;94406.34;4937508;28;7130;-62
2024/04/06 10:53:05;;;;;;;;;;;;;;;25.91;38.77;94402.03;4936721;28;7027;-63
2024/04/06 10:55:31;;;;;;;;;;;;;;;25.56;39.43;94411.03;4941527;28;7049;-63
2024/04/06 10:58:03;;;;;;;;;;;;;;;25.35;39.21;94407.13;4955203;28;7029;-63
2024/04/06 11:00:31;;;;;;;;;;;;;;;25.12;39.07;94395.47;4953315;28;7093;-63
2024/04/06 11:03:08;;;;;;;;;;;;;;;25.09;39.07;94415.75;4991021;28;7199;-62
2024/04/06 11:05:36;;;;;;;;;;;;;;;24.93;39.11;94404.81;4993464;28;7446;-62
2024/04/06 11:08:04;;;;;;;;;;;;;;;24.87;39.49;94417.84;4990399;28;7620;-63
2024/04/06 11:10:30;;;;;;;;;;;;;;;24.84;39.99;94413.34;5005973;28;7337;-62
2024/04/06 11:13:13;;;;;;;;;;;;;;;24.79;39.69;94408.63;4991396;28;7100;-63
2024/04/06 11:15:50;;;;;;;;;;;;;;;24.66;39.40;94404.34;5022059;28;7097;-63
2024/04/06 11:18:49;;;;;;;;;;;;;;;24.70;39.98;94409.63;5078418;28;7047;-63
2024/04/06 11:21:24;;;;;;;;;;;;;;;24.68;39.71;94412.84;5028712;28;7243;-63
2024/04/06 11:24:05;;;;;;;;;;;;;;;24.61;39.67;94405.13;5032270;28;7302;-63
2024/04/06 11:27:08;;;;;;;;;;;;;;;24.66;39.91;94420.84;5016383;28;7129;-63
2024/04/06 11:29:52;;;;;;;;;;;;;;;24.59;39.38;94415.91;4950335;28;7839;-63
2024/04/06 11:32:52;;;;;;;;;;;;;;;24.67;39.84;94425.13;4956521;28;6960;-63
2024/04/06 11:35:30;;;;;;;;;;;;;;;24.63;39.26;94413.63;4937107;28;7290;-63
2024/04/06 11:38:05;;;;;;;;;;;;;;;24.70;40.03;94418.63;4917497;29;7199;-63
2024/04/06 11:40:46;;;;;;;;;;;;;;;24.69;39.14;94408.84;4918952;29;7241;-63
2024/04/06 11:43:14;;;;;;;;;;;;;;;24.67;39.20;94408.63;4933450;29;7311;-63
2024/04/06 11:45:45;;;;;;;;;;;;;;;24.61;39.51;94385.88;4934201;29;9041;-63
2024/04/06 11:48:26;;;;;;;;;;;;;;;24.71;38.92;94400.84;4944829;28;7025;-63
2024/04/06 11:50:54;;;;;;;;;;;;;;;24.79;38.72;94400.38;4918233;29;7203;-65
2024/04/06 11:53:34;;;;;;;;;;;;;;;24.77;38.98;94389.88;4935330;29;8030;-63
2024/04/06 11:56:03;;;;;;;;;;;;;;;24.76;39.03;94377.38;4918757;29;7755;-63
2024/04/06 11:58:39;;;;;;;;;;;;;;;24.83;39.02;94381.59;4961854;28;9644;-63
2024/04/06 12:01:48;;;;;;;;;;;;;;;24.87;38.60;94387.56;4953529;28;9575;-63
2024/04/06 12:04:52;;;;;;;;;;;;;;;24.88;39.25;94386.34;4952112;28;9341;-61
2024/04/06 12:07:18;;;;;;;;;;;;;;;24.83;38.79;94373.34;4946965;28;7053;-61
2024/04/06 12:09:43;;;;;;;;;;;;;;;24.79;38.64;94368.09;4927993;28;7624;-61
2024/04/06 12:12:34;;;;;;;;;;;;;;;24.94;38.25;94376.03;5020625;28;7202;-61
2024/04/06 12:15:09;;;;;;;;;;;;;;;24.97;38.79;94388.81;4996375;28;7286;-61
2024/04/06 12:17:51;;;;;;;;;;;;;;;24.93;38.40;94366.28;5019753;28;7275;-58
2024/04/06 12:20:25;;;;;;;;;;;;;;;24.98;38.75;94369.03;5011947;28;7032;-57
2024/04/06 12:23:35;;;;;;;;;;;;;;;25.08;38.36;94378.47;5013107;28;7114;-58
2024/04/06 12:26:02;;;;;;;;;;;;;;;25.08;39.46;94372.97;4998892;28;6903;-60
2024/04/06 12:29:20;;;;;;;;;;;;;;;25.08;38.96;94374.97;5008170;28;7321;-59
2024/04/06 12:32:06;;;;;;;;;;;;;;;25.09;38.59;94368.22;4960446;28;7243;-59
2024/04/06 12:34:47;;;;;;;;;;;;;;;25.09;38.48;94363.47;4971066;28;7056;-59
2024/04/06 12:37:30;;;;;;;;;;;;;;;25.04;38.82;94349.72;4973890;28;7206;-59
2024/04/06 12:40:25;;;;;;;;;;;;;;;25.15;38.24;94355.94;5010797;28;7018;-59
2024/04/06 12:43:00;;;;;;;;;;;;;;;25.16;39.05;94345.69;4939351;28;6856;-59
2024/04/06 12:45:39;;;;;;;;;;;;;;;25.19;38.30;94344.63;4936106;28;7201;-59
2024/04/06 12:48:32;;;;;;;;;;;;;;;25.29;38.19;94348.59;4951894;28;7295;-61
2024/04/06 12:51:04;;;;;;;;;;;;;;;25.28;38.00;94342.34;4943029;28;6992;-57
2024/04/06 12:53:36;;;;;;;;;;;;;;;25.27;38.24;94342.88;4941997;28;7027;-58
2024/04/06 12:57:36;;;;;;;;;;;;;;;25.35;39.00;94346.56;4938561;28;7549;-60
2024/04/06 12:59:53;;;;;;;;;;;;;;;25.41;38.56;94339.00;4942196;28;7330;-60
2024/04/06 13:02:56;;;;;;;;;;;;;;;25.41;38.13;94336.25;4880215;29;7059;-59
2024/04/06 13:05:35;;;;;;;;;;;;;;;25.42;39.38;94330.25;4861082;29;7024;-61
2024/04/06 13:08:01;;;;;;;;;;;;;;;25.43;40.42;94342.78;4853228;29;9467;-61
2024/04/06 13:10:27;;;;;;;;;;;;;;;25.66;53.77;94353.66;4866189;29;7060;-61
2024/04/06 13:13:25;;;;;;;;;;;;;;;26.04;55.92;94347.06;4844308;29;7010;-61
2024/04/06 13:16:05;;;;;;;;;;;;;;;26.42;57.48;94340.47;4843355;29;7054;-61
2024/04/06 13:19:25;;;;;;;;;;;;;;;26.68;53.65;94348.97;4871899;29;7139;-60
2024/04/06 13:22:00;;;;;;;;;;;;;;;26.95;53.34;94346.41;4822939;29;7193;-60
2024/04/06 13:24:26;;;;;;;;;;;;;;;27.05;50.00;94340.00;4840782;29;7107;-63
2024/04/06 13:26:54;;;;;;;;;;;;;;;27.16;48.19;94323.28;4837890;29;7032;-64
2024/04/06 13:29:41;;;;;;;;;;;;;;;27.29;46.94;94326.13;4838241;29;7033;-61
2024/04/06 13:32:18;;;;;;;;;;;;;;;27.39;44.67;94326.50;4823164;29;7049;-61
2024/04/06 13:34:54;;;;;;;;;;;;;;;27.21;40.97;94299.63;4826650;29;7067;-61
2024/04/06 13:37:52;;;;;;;;;;;;;;;26.76;39.26;94296.72;4839497;29;7273;-61
2024/04/06 13:40:53;;;;;;;;;;;;;;;26.50;39.09;94307.53;4888569;29;7503;-62
2024/04/06 13:43:48;;;;;;;;;;;;;;;26.31;38.68;94296.47;4879713;29;7211;-61
2024/04/06 13:46:16;;;;;;;;;;;;;;;26.09;39.00;94283.66;4853270;29;7883;-61
2024/04/06 13:49:11;;;;;;;;;;;;;;;26.15;39.21;94297.38;4858979;29;7004;-61
2024/04/06 13:51:40;;;;;;;;;;;;;;;26.07;39.25;94294.41;4868445;29;7272;-61
2024/04/06 13:54:23;;;;;;;;;;;;;;;26.01;39.25;94287.47;4877636;29;7061;-61
2024/04/06 13:56:59;;;;;;;;;;;;;;;25.99;38.78;94285.22;4874934;29;6993;-61
2024/04/06 13:59:38;;;;;;;;;;;;;;;25.99;39.35;94278.97;4933921;29;9068;-61
2024/04/06 14:02:04;;;;;;;;;;;;;;;25.99;38.68;94274.19;4948592;29;7287;-61